AirNav   Everest Fuels
 
 1467 users online  

8PA2 Ronca Heliport
Bethlehem, Pennsylvania, USA

GOING TO BETHLEHEM?


FAA INFORMATION EFFECTIVE 02 JANUARY 2020

Location

FAA Identifier: 8PA2
Lat/Long: 40-41-03.3520N 075-20-02.6460W
40-41.055867N 075-20.044100W
40.6842644,-75.3340683
(estimated)
Elevation: 375 ft. / 114 m (estimated)
Variation: 12W (1990)
From city: 2 miles NE of BETHLEHEM, PA
Time zone: UTC -5 (UTC -4 during Daylight Saving Time)
Zip code: 18020

Heliport Operations

Heliport use: Private use. Permission required prior to landing
Activation date: 01/1992
Control tower: no
ARTCC: NEW YORK CENTER
FSS: WILLIAMSPORT FLIGHT SERVICE STATION
Attendance: UNATNDD
Wind indicator: lighted
Segmented circle: no
Lights: PHONE REQ

Heliport Communications

WX ASOS at ABE (5 nm W): 126.975 (610-266-3579)
WX AWOS-3 at XLL (10 nm SW): 127.875 (610-231-3111)
WX AWOS-3 at UKT (15 nm S): 119.475 (215-538-7610)
WX AWOS-3 at CKZ (18 nm S): 126.325 (215-257-7291)

Nearby radio navigation aids

VOR radial/distance  VOR name  Freq  Var
FJCr125/6.1ALLENTOWN VORTAC117.5010W
ETXr078/17.1EAST TEXAS VOR/DME110.2009W
BWZr265/24.3BROADWAY VOR/DME114.2011W
SBJr293/27.6SOLBERG VOR/DME112.9010W
STWr239/28.2STILLWATER VOR/DME109.6011W
PTWr029/29.6POTTSTOWN VORTAC116.5009W
ARDr333/32.4YARDLEY VOR/DME108.2010W
LVZr165/38.8WILKES-BARRE VORTAC111.6010W

 
NDB name  Hdg/Dist  Freq  Var  ID
AMBLER008/33.627512WING .. -. --.

Heliport Services

Runway Information

Helipad H1

Dimensions: 60 x 60 ft. / 18 x 18 m
Surface: turf
Runway edge lights: FLD
Latitude: 40-41.055867N
Longitude: 075-20.044100W
Elevation: 375.0 ft.
Traffic pattern: leftleft

Heliport Ownership and Management from official FAA records

Ownership: Privately-owned
Owner: MICHAEL F. RONCA & SONS INC
179 MIKRON RD
BETHLEHEM, PA 18020
Phone (610) 759-5100
Manager: MICHAEL RONCA
179 MIKRON RD
BETHLEHEM, PA 18020
Phone (610) 759-5100

Additional Remarks

FOR FLOOD LGTS CALL 610-972-2009.
FOR CD CTC ALLENTOWN APCH AT 800-728-6322.

Instrument Procedures

There are no published instrument procedures at 8PA2.

Some nearby airports with instrument procedures:

KABE - Lehigh Valley International Airport (5 nm W)
N43 - Braden Airpark (5 nm NE)
KXLL - Allentown Queen City Municipal Airport (10 nm SW)
KUKT - Quakertown Airport (15 nm S)
N85 - Alexandria Airport (15 nm E)
N40 - Sky Manor Airport (18 nm SE)
KCKZ - Pennridge Airport (18 nm S)
 
Loc | Ops | Rwys | IFR | FBO | Links
Com | Nav | Svcs | Stats | Notes
Area around 8PA2 (Ronca Heliport)
 
Road maps at: MapQuest Bing Google
 
Aerial photo
No photo
 
Sectional chart

 
Airport distance calculator
Flying to Ronca Heliport? Find the distance to fly.

From to 8PA2

Sunrise and sunset
Times for 23-Jan-2020
 Local
(UTC-5)
 Zulu
(UTC)
Morning civil twilight06:5011:50
Sunrise07:2012:20
Sunset17:0722:07
Evening civil twilight17:3622:36

Current date and time
Zulu (UTC)  23-Jan-2020 22:57:51
Local (UTC-5)  23-Jan-2020 17:57:51
 
METAR
KABE 
6nm W 
232251Z 00000KT 10SM CLR 04/M07 A3033 RMK AO2 SLP276 T00391067
KXLL 
10nm SW 
232235Z AUTO 00000KT 10SM CLR 04/M05 A3035 RMK AO2
KUKT 
15nm S 
232255Z AUTO 00000KT 10SM CLR 02/M06 A3034 RMK A01
KCKZ 
18nm S 
232255Z AUTO 00000KT 10SM CLR 02/M07 A3034 RMK AO2
TAF
KABE 
6nm W 
231738Z 2318/2418 VRB03KT P6SM BKN250 FM241200 00000KT P6SM SCT200
NOTAMs
Click for the latest NOTAMs
NOTAMs are issued by the DoD/FAA and will open in a separate window not controlled by AirNav.

 

 
 

Would you like to see your business listed on this page?

 If your business provides an interesting product or service to pilots, flight crews, aircraft, or users of the Ronca Heliport, you should consider listing it here.  To start the listing process, click on the button below
 
Add a business
 

Other Pages about Ronca Heliport

Update a link
 
Copyright © AirNav, LLC. All rights reserved. Privacy Policy  Contact